sensor_id;sensor_type;location;lat;lon;timestamp;P1;durP1;ratioP1;P2;durP2;ratioP2
78508;SDS011;67802;50.846;7.958;2023-09-18T00:00:23;5.47;;;2.53;;
78508;SDS011;67802;50.846;7.958;2023-09-18T00:02:48;5.70;;;2.60;;
78508;SDS011;67802;50.846;7.958;2023-09-18T00:05:13;5.55;;;2.58;;
78508;SDS011;67802;50.846;7.958;2023-09-18T00:07:41;7.13;;;2.63;;
78508;SDS011;67802;50.846;7.958;2023-09-18T00:10:08;5.53;;;2.75;;
78508;SDS011;67802;50.846;7.958;2023-09-18T00:12:34;4.82;;;2.63;;
78508;SDS011;67802;50.846;7.958;2023-09-18T00:15:00;6.32;;;2.75;;
78508;SDS011;67802;50.846;7.958;2023-09-18T00:17:25;6.00;;;2.67;;
78508;SDS011;67802;50.846;7.958;2023-09-18T00:19:50;5.03;;;2.73;;
78508;SDS011;67802;50.846;7.958;2023-09-18T00:22:16;5.80;;;2.92;;
78508;SDS011;67802;50.846;7.958;2023-09-18T00:24:42;5.70;;;2.50;;
78508;SDS011;67802;50.846;7.958;2023-09-18T00:27:07;4.72;;;2.70;;
78508;SDS011;67802;50.846;7.958;2023-09-18T00:29:32;5.30;;;2.53;;
78508;SDS011;67802;50.846;7.958;2023-09-18T00:31:58;4.97;;;2.67;;
78508;SDS011;67802;50.846;7.958;2023-09-18T00:34:23;6.13;;;2.92;;
78508;SDS011;67802;50.846;7.958;2023-09-18T00:36:48;4.93;;;2.23;;
78508;SDS011;67802;50.846;7.958;2023-09-18T00:39:14;5.82;;;2.67;;
78508;SDS011;67802;50.846;7.958;2023-09-18T00:41:40;5.35;;;2.80;;
78508;SDS011;67802;50.846;7.958;2023-09-18T00:44:06;5.50;;;2.80;;
78508;SDS011;67802;50.846;7.958;2023-09-18T00:46:31;5.20;;;2.25;;
78508;SDS011;67802;50.846;7.958;2023-09-18T00:48:57;4.80;;;2.42;;
78508;SDS011;67802;50.846;7.958;2023-09-18T00:51:23;5.20;;;3.00;;
78508;SDS011;67802;50.846;7.958;2023-09-18T00:53:49;5.93;;;2.50;;
78508;SDS011;67802;50.846;7.958;2023-09-18T00:56:15;5.13;;;2.75;;
78508;SDS011;67802;50.846;7.958;2023-09-18T00:58:41;5.97;;;2.78;;
78508;SDS011;67802;50.846;7.958;2023-09-18T01:01:06;6.90;;;2.58;;
78508;SDS011;67802;50.846;7.958;2023-09-18T01:03:33;5.63;;;2.63;;
78508;SDS011;67802;50.846;7.958;2023-09-18T01:05:59;6.60;;;2.47;;
78508;SDS011;67802;50.846;7.958;2023-09-18T01:08:24;6.20;;;2.70;;
78508;SDS011;67802;50.846;7.958;2023-09-18T01:13:45;5.95;;;3.08;;
78508;SDS011;67802;50.846;7.958;2023-09-18T01:16:35;6.10;;;2.58;;
78508;SDS011;67802;50.846;7.958;2023-09-18T01:19:09;5.85;;;2.83;;
78508;SDS011;67802;50.846;7.958;2023-09-18T01:21:35;6.65;;;2.72;;
78508;SDS011;67802;50.846;7.958;2023-09-18T01:24:01;5.90;;;2.60;;
78508;SDS011;67802;50.846;7.958;2023-09-18T01:26:26;5.35;;;2.72;;
78508;SDS011;67802;50.846;7.958;2023-09-18T01:28:52;5.28;;;2.83;;
78508;SDS011;67802;50.846;7.958;2023-09-18T01:31:17;5.57;;;2.60;;
78508;SDS011;67802;50.846;7.958;2023-09-18T01:33:42;5.05;;;2.58;;
78508;SDS011;67802;50.846;7.958;2023-09-18T01:36:12;4.68;;;2.17;;
78508;SDS011;67802;50.846;7.958;2023-09-18T01:38:39;5.15;;;2.88;;
78508;SDS011;67802;50.846;7.958;2023-09-18T01:41:05;6.00;;;3.00;;
78508;SDS011;67802;50.846;7.958;2023-09-18T01:43:31;5.03;;;2.50;;
78508;SDS011;67802;50.846;7.958;2023-09-18T01:45:57;5.65;;;2.50;;
78508;SDS011;67802;50.846;7.958;2023-09-18T01:48:22;6.57;;;2.70;;
78508;SDS011;67802;50.846;7.958;2023-09-18T01:50:48;6.50;;;2.92;;
78508;SDS011;67802;50.846;7.958;2023-09-18T01:53:13;4.88;;;2.45;;
78508;SDS011;67802;50.846;7.958;2023-09-18T01:55:38;4.50;;;2.50;;
78508;SDS011;67802;50.846;7.958;2023-09-18T01:58:03;5.80;;;2.80;;
78508;SDS011;67802;50.846;7.958;2023-09-18T02:00:29;6.88;;;2.63;;
78508;SDS011;67802;50.846;7.958;2023-09-18T02:02:54;5.67;;;2.60;;
78508;SDS011;67802;50.846;7.958;2023-09-18T02:05:19;5.30;;;2.53;;
78508;SDS011;67802;50.846;7.958;2023-09-18T02:07:45;5.80;;;2.50;;
78508;SDS011;67802;50.846;7.958;2023-09-18T02:10:10;5.22;;;2.63;;
78508;SDS011;67802;50.846;7.958;2023-09-18T02:12:37;5.50;;;2.80;;
78508;SDS011;67802;50.846;7.958;2023-09-18T02:15:03;5.47;;;2.80;;
78508;SDS011;67802;50.846;7.958;2023-09-18T02:17:31;6.40;;;2.63;;
78508;SDS011;67802;50.846;7.958;2023-09-18T02:19:56;6.03;;;2.60;;
78508;SDS011;67802;50.846;7.958;2023-09-18T02:22:21;7.73;;;2.50;;
78508;SDS011;67802;50.846;7.958;2023-09-18T02:24:47;5.25;;;2.78;;
78508;SDS011;67802;50.846;7.958;2023-09-18T02:27:12;6.45;;;2.90;;
78508;SDS011;67802;50.846;7.958;2023-09-18T02:29:38;7.15;;;2.60;;
78508;SDS011;67802;50.846;7.958;2023-09-18T02:32:03;5.00;;;2.50;;
78508;SDS011;67802;50.846;7.958;2023-09-18T02:34:28;7.40;;;2.50;;
78508;SDS011;67802;50.846;7.958;2023-09-18T02:36:54;5.45;;;2.33;;
78508;SDS011;67802;50.846;7.958;2023-09-18T02:39:19;6.20;;;2.42;;
78508;SDS011;67802;50.846;7.958;2023-09-18T02:41:44;4.85;;;2.55;;
78508;SDS011;67802;50.846;7.958;2023-09-18T02:44:10;5.72;;;2.67;;
78508;SDS011;67802;50.846;7.958;2023-09-18T02:46:36;5.68;;;2.58;;
78508;SDS011;67802;50.846;7.958;2023-09-18T02:49:02;6.72;;;2.60;;
78508;SDS011;67802;50.846;7.958;2023-09-18T02:51:28;5.35;;;2.50;;
78508;SDS011;67802;50.846;7.958;2023-09-18T02:53:56;5.18;;;2.58;;
78508;SDS011;67802;50.846;7.958;2023-09-18T02:56:22;7.22;;;2.55;;
78508;SDS011;67802;50.846;7.958;2023-09-18T02:58:47;6.67;;;2.47;;
78508;SDS011;67802;50.846;7.958;2023-09-18T03:01:12;5.73;;;2.30;;
78508;SDS011;67802;50.846;7.958;2023-09-18T03:03:38;6.73;;;2.50;;
78508;SDS011;67802;50.846;7.958;2023-09-18T03:06:03;4.63;;;2.30;;
78508;SDS011;67802;50.846;7.958;2023-09-18T03:08:30;6.20;;;2.45;;
78508;SDS011;67802;50.846;7.958;2023-09-18T03:10:55;5.80;;;2.03;;
78508;SDS011;67802;50.846;7.958;2023-09-18T03:13:21;6.18;;;2.70;;
78508;SDS011;67802;50.846;7.958;2023-09-18T03:15:47;5.47;;;2.40;;
78508;SDS011;67802;50.846;7.958;2023-09-18T03:18:12;5.47;;;2.38;;
78508;SDS011;67802;50.846;7.958;2023-09-18T03:20:38;5.25;;;2.20;;
78508;SDS011;67802;50.846;7.958;2023-09-18T03:23:03;7.75;;;2.78;;
78508;SDS011;67802;50.846;7.958;2023-09-18T03:25:29;5.32;;;2.38;;
78508;SDS011;67802;50.846;7.958;2023-09-18T03:27:55;8.38;;;2.47;;
78508;SDS011;67802;50.846;7.958;2023-09-18T03:30:22;6.75;;;2.40;;
78508;SDS011;67802;50.846;7.958;2023-09-18T03:32:51;5.50;;;2.92;;
78508;SDS011;67802;50.846;7.958;2023-09-18T03:35:17;5.70;;;2.63;;
78508;SDS011;67802;50.846;7.958;2023-09-18T03:37:46;5.30;;;2.17;;
78508;SDS011;67802;50.846;7.958;2023-09-18T03:40:13;4.85;;;2.00;;
78508;SDS011;67802;50.846;7.958;2023-09-18T03:42:38;5.75;;;2.10;;
78508;SDS011;67802;50.846;7.958;2023-09-18T03:45:07;5.82;;;2.42;;
78508;SDS011;67802;50.846;7.958;2023-09-18T03:47:36;6.13;;;2.17;;
78508;SDS011;67802;50.846;7.958;2023-09-18T03:50:04;6.28;;;2.10;;
78508;SDS011;67802;50.846;7.958;2023-09-18T03:52:30;4.50;;;2.05;;
78508;SDS011;67802;50.846;7.958;2023-09-18T03:54:56;5.55;;;2.17;;
78508;SDS011;67802;50.846;7.958;2023-09-18T03:57:21;6.13;;;2.35;;
78508;SDS011;67802;50.846;7.958;2023-09-18T03:59:46;6.88;;;2.63;;
78508;SDS011;67802;50.846;7.958;2023-09-18T04:02:12;6.70;;;2.17;;
78508;SDS011;67802;50.846;7.958;2023-09-18T04:04:37;6.25;;;2.42;;
78508;SDS011;67802;50.846;7.958;2023-09-18T04:07:05;6.13;;;2.00;;
78508;SDS011;67802;50.846;7.958;2023-09-18T04:09:31;4.50;;;1.95;;
78508;SDS011;67802;50.846;7.958;2023-09-18T04:11:57;5.65;;;2.13;;
78508;SDS011;67802;50.846;7.958;2023-09-18T04:14:22;4.25;;;1.85;;
78508;SDS011;67802;50.846;7.958;2023-09-18T04:16:48;4.28;;;1.83;;
78508;SDS011;67802;50.846;7.958;2023-09-18T04:19:13;4.30;;;2.13;;
78508;SDS011;67802;50.846;7.958;2023-09-18T04:21:38;8.00;;;2.50;;
78508;SDS011;67802;50.846;7.958;2023-09-18T04:24:03;5.50;;;1.97;;
78508;SDS011;67802;50.846;7.958;2023-09-18T04:26:29;4.93;;;1.98;;
78508;SDS011;67802;50.846;7.958;2023-09-18T04:29:01;4.40;;;2.08;;
78508;SDS011;67802;50.846;7.958;2023-09-18T04:31:27;4.68;;;2.40;;
78508;SDS011;67802;50.846;7.958;2023-09-18T04:33:53;4.78;;;2.38;;
78508;SDS011;67802;50.846;7.958;2023-09-18T04:36:19;6.93;;;2.33;;
78508;SDS011;67802;50.846;7.958;2023-09-18T04:38:44;5.22;;;2.28;;
78508;SDS011;67802;50.846;7.958;2023-09-18T04:41:09;4.28;;;2.10;;
78508;SDS011;67802;50.846;7.958;2023-09-18T04:43:39;4.85;;;2.05;;
78508;SDS011;67802;50.846;7.958;2023-09-18T04:46:05;6.30;;;2.25;;
78508;SDS011;67802;50.846;7.958;2023-09-18T04:48:30;4.90;;;1.98;;
78508;SDS011;67802;50.846;7.958;2023-09-18T04:50:57;4.93;;;2.03;;
78508;SDS011;67802;50.846;7.958;2023-09-18T04:53:23;4.30;;;1.92;;
78508;SDS011;67802;50.846;7.958;2023-09-18T04:55:48;5.10;;;2.13;;
78508;SDS011;67802;50.846;7.958;2023-09-18T04:58:17;4.55;;;1.88;;
78508;SDS011;67802;50.846;7.958;2023-09-18T05:00:42;8.20;;;2.53;;
78508;SDS011;67802;50.846;7.958;2023-09-18T05:03:08;5.55;;;1.90;;
78508;SDS011;67802;50.846;7.958;2023-09-18T05:05:34;4.78;;;1.90;;
78508;SDS011;67802;50.846;7.958;2023-09-18T05:08:01;5.93;;;2.30;;
78508;SDS011;67802;50.846;7.958;2023-09-18T05:10:28;5.38;;;2.08;;
78508;SDS011;67802;50.846;7.958;2023-09-18T05:12:53;6.03;;;1.98;;
78508;SDS011;67802;50.846;7.958;2023-09-18T05:15:23;5.03;;;1.95;;
78508;SDS011;67802;50.846;7.958;2023-09-18T05:17:51;4.90;;;2.10;;
78508;SDS011;67802;50.846;7.958;2023-09-18T05:20:20;4.60;;;2.05;;
78508;SDS011;67802;50.846;7.958;2023-09-18T05:22:49;4.90;;;2.08;;
78508;SDS011;67802;50.846;7.958;2023-09-18T05:25:14;4.78;;;2.05;;
78508;SDS011;67802;50.846;7.958;2023-09-18T05:27:40;5.43;;;2.30;;
78508;SDS011;67802;50.846;7.958;2023-09-18T05:30:13;6.63;;;2.28;;
78508;SDS011;67802;50.846;7.958;2023-09-18T05:32:40;5.57;;;2.03;;
78508;SDS011;67802;50.846;7.958;2023-09-18T05:35:07;4.13;;;2.17;;
78508;SDS011;67802;50.846;7.958;2023-09-18T05:37:35;5.30;;;1.90;;
78508;SDS011;67802;50.846;7.958;2023-09-18T05:40:00;5.15;;;2.28;;
78508;SDS011;67802;50.846;7.958;2023-09-18T05:42:26;5.33;;;2.00;;
78508;SDS011;67802;50.846;7.958;2023-09-18T05:44:51;4.70;;;2.00;;
78508;SDS011;67802;50.846;7.958;2023-09-18T05:47:16;4.47;;;1.90;;
78508;SDS011;67802;50.846;7.958;2023-09-18T05:49:41;5.10;;;2.07;;
78508;SDS011;67802;50.846;7.958;2023-09-18T05:52:07;4.10;;;1.80;;
78508;SDS011;67802;50.846;7.958;2023-09-18T05:54:32;5.97;;;2.07;;
78508;SDS011;67802;50.846;7.958;2023-09-18T05:56:57;4.90;;;2.00;;
78508;SDS011;67802;50.846;7.958;2023-09-18T05:59:23;4.80;;;2.05;;
78508;SDS011;67802;50.846;7.958;2023-09-18T06:01:48;5.33;;;1.93;;
78508;SDS011;67802;50.846;7.958;2023-09-18T06:04:14;5.45;;;2.28;;
78508;SDS011;67802;50.846;7.958;2023-09-18T06:06:39;4.50;;;2.00;;
78508;SDS011;67802;50.846;7.958;2023-09-18T06:09:05;5.45;;;2.10;;
78508;SDS011;67802;50.846;7.958;2023-09-18T06:11:30;6.63;;;2.23;;
78508;SDS011;67802;50.846;7.958;2023-09-18T06:13:56;5.60;;;2.00;;
78508;SDS011;67802;50.846;7.958;2023-09-18T06:16:21;4.82;;;2.00;;
78508;SDS011;67802;50.846;7.958;2023-09-18T06:18:46;5.55;;;1.98;;
78508;SDS011;67802;50.846;7.958;2023-09-18T06:21:12;4.63;;;2.00;;
78508;SDS011;67802;50.846;7.958;2023-09-18T06:23:37;5.07;;;1.95;;
78508;SDS011;67802;50.846;7.958;2023-09-18T06:26:02;6.05;;;2.30;;
78508;SDS011;67802;50.846;7.958;2023-09-18T06:28:29;5.28;;;1.95;;
78508;SDS011;67802;50.846;7.958;2023-09-18T06:30:54;5.90;;;1.85;;
78508;SDS011;67802;50.846;7.958;2023-09-18T06:33:20;6.05;;;2.30;;
78508;SDS011;67802;50.846;7.958;2023-09-18T06:35:45;4.65;;;2.10;;
78508;SDS011;67802;50.846;7.958;2023-09-18T06:38:13;5.18;;;2.10;;
78508;SDS011;67802;50.846;7.958;2023-09-18T06:40:40;4.97;;;1.77;;
78508;SDS011;67802;50.846;7.958;2023-09-18T06:43:05;6.40;;;2.30;;
78508;SDS011;67802;50.846;7.958;2023-09-18T06:45:31;5.68;;;2.40;;
78508;SDS011;67802;50.846;7.958;2023-09-18T06:47:58;4.85;;;2.00;;
78508;SDS011;67802;50.846;7.958;2023-09-18T06:50:23;5.10;;;1.70;;
78508;SDS011;67802;50.846;7.958;2023-09-18T06:52:49;7.03;;;1.95;;
78508;SDS011;67802;50.846;7.958;2023-09-18T06:55:14;5.47;;;1.92;;
78508;SDS011;67802;50.846;7.958;2023-09-18T06:57:41;6.13;;;2.00;;
78508;SDS011;67802;50.846;7.958;2023-09-18T07:00:07;4.57;;;1.90;;
78508;SDS011;67802;50.846;7.958;2023-09-18T07:02:33;4.72;;;1.80;;
78508;SDS011;67802;50.846;7.958;2023-09-18T07:04:58;5.75;;;1.75;;
78508;SDS011;67802;50.846;7.958;2023-09-18T07:07:24;5.35;;;1.80;;
78508;SDS011;67802;50.846;7.958;2023-09-18T07:09:50;5.80;;;1.98;;
78508;SDS011;67802;50.846;7.958;2023-09-18T07:12:16;5.82;;;1.70;;
78508;SDS011;67802;50.846;7.958;2023-09-18T07:14:44;4.72;;;1.95;;
78508;SDS011;67802;50.846;7.958;2023-09-18T07:17:12;5.22;;;1.80;;
78508;SDS011;67802;50.846;7.958;2023-09-18T07:19:38;5.13;;;1.77;;
78508;SDS011;67802;50.846;7.958;2023-09-18T07:22:03;8.45;;;1.90;;
78508;SDS011;67802;50.846;7.958;2023-09-18T07:24:29;9.65;;;1.95;;
78508;SDS011;67802;50.846;7.958;2023-09-18T07:26:54;6.00;;;1.73;;
78508;SDS011;67802;50.846;7.958;2023-09-18T07:29:20;6.00;;;1.95;;
78508;SDS011;67802;50.846;7.958;2023-09-18T07:31:46;5.65;;;1.80;;
78508;SDS011;67802;50.846;7.958;2023-09-18T07:34:12;4.15;;;1.50;;
78508;SDS011;67802;50.846;7.958;2023-09-18T07:36:38;4.97;;;1.88;;
78508;SDS011;67802;50.846;7.958;2023-09-18T07:39:04;4.60;;;1.70;;
78508;SDS011;67802;50.846;7.958;2023-09-18T07:41:29;4.25;;;1.67;;
78508;SDS011;67802;50.846;7.958;2023-09-18T07:43:56;4.97;;;1.83;;
78508;SDS011;67802;50.846;7.958;2023-09-18T07:46:23;5.35;;;1.77;;
78508;SDS011;67802;50.846;7.958;2023-09-18T07:48:48;3.63;;;1.60;;
78508;SDS011;67802;50.846;7.958;2023-09-18T07:51:14;4.97;;;1.80;;
78508;SDS011;67802;50.846;7.958;2023-09-18T07:53:41;3.72;;;1.80;;
78508;SDS011;67802;50.846;7.958;2023-09-18T07:56:07;4.82;;;1.80;;
78508;SDS011;67802;50.846;7.958;2023-09-18T07:58:32;3.45;;;1.50;;
78508;SDS011;67802;50.846;7.958;2023-09-18T08:00:58;4.43;;;1.60;;
78508;SDS011;67802;50.846;7.958;2023-09-18T08:03:24;5.28;;;1.73;;
78508;SDS011;67802;50.846;7.958;2023-09-18T08:05:51;4.88;;;1.92;;
78508;SDS011;67802;50.846;7.958;2023-09-18T08:08:18;4.68;;;1.60;;
78508;SDS011;67802;50.846;7.958;2023-09-18T08:10:48;5.13;;;1.65;;
78508;SDS011;67802;50.846;7.958;2023-09-18T08:13:14;3.95;;;1.63;;
78508;SDS011;67802;50.846;7.958;2023-09-18T08:15:39;5.50;;;1.70;;
78508;SDS011;67802;50.846;7.958;2023-09-18T08:18:05;5.25;;;1.90;;
78508;SDS011;67802;50.846;7.958;2023-09-18T08:20:30;5.28;;;1.55;;
78508;SDS011;67802;50.846;7.958;2023-09-18T08:22:55;3.50;;;1.50;;
78508;SDS011;67802;50.846;7.958;2023-09-18T08:25:21;4.78;;;1.70;;
78508;SDS011;67802;50.846;7.958;2023-09-18T08:27:47;4.90;;;1.42;;
78508;SDS011;67802;50.846;7.958;2023-09-18T08:30:13;4.00;;;1.50;;
78508;SDS011;67802;50.846;7.958;2023-09-18T08:32:40;3.15;;;1.50;;
78508;SDS011;67802;50.846;7.958;2023-09-18T08:35:06;4.70;;;1.40;;
78508;SDS011;67802;50.846;7.958;2023-09-18T08:37:33;4.22;;;1.27;;
78508;SDS011;67802;50.846;7.958;2023-09-18T08:39:58;5.72;;;1.50;;
78508;SDS011;67802;50.846;7.958;2023-09-18T08:42:26;3.65;;;1.48;;
78508;SDS011;67802;50.846;7.958;2023-09-18T08:44:55;3.38;;;1.40;;
78508;SDS011;67802;50.846;7.958;2023-09-18T08:47:23;3.35;;;1.60;;
78508;SDS011;67802;50.846;7.958;2023-09-18T08:49:49;4.40;;;1.58;;
78508;SDS011;67802;50.846;7.958;2023-09-18T08:52:15;4.25;;;1.50;;
78508;SDS011;67802;50.846;7.958;2023-09-18T08:54:42;4.88;;;1.65;;
78508;SDS011;67802;50.846;7.958;2023-09-18T08:57:09;4.13;;;1.90;;
78508;SDS011;67802;50.846;7.958;2023-09-18T08:59:34;4.97;;;1.67;;
78508;SDS011;67802;50.846;7.958;2023-09-18T09:02:01;3.28;;;1.50;;
78508;SDS011;67802;50.846;7.958;2023-09-18T09:04:27;4.38;;;1.50;;
78508;SDS011;67802;50.846;7.958;2023-09-18T09:06:53;4.25;;;1.40;;
78508;SDS011;67802;50.846;7.958;2023-09-18T09:09:18;3.20;;;1.25;;
78508;SDS011;67802;50.846;7.958;2023-09-18T09:11:50;5.13;;;1.60;;
78508;SDS011;67802;50.846;7.958;2023-09-18T09:14:16;2.60;;;1.20;;
78508;SDS011;67802;50.846;7.958;2023-09-18T09:16:52;4.82;;;1.60;;
78508;SDS011;67802;50.846;7.958;2023-09-18T09:19:18;2.40;;;1.15;;
78508;SDS011;67802;50.846;7.958;2023-09-18T09:21:52;3.58;;;1.40;;
78508;SDS011;67802;50.846;7.958;2023-09-18T09:24:19;4.13;;;1.30;;
78508;SDS011;67802;50.846;7.958;2023-09-18T09:27:02;4.72;;;1.50;;
78508;SDS011;67802;50.846;7.958;2023-09-18T09:29:28;3.40;;;1.33;;
78508;SDS011;67802;50.846;7.958;2023-09-18T09:31:54;4.47;;;1.30;;
78508;SDS011;67802;50.846;7.958;2023-09-18T09:34:24;2.70;;;1.25;;
78508;SDS011;67802;50.846;7.958;2023-09-18T09:36:54;3.80;;;1.20;;
78508;SDS011;67802;50.846;7.958;2023-09-18T09:39:21;4.20;;;1.35;;
78508;SDS011;67802;50.846;7.958;2023-09-18T09:41:49;3.17;;;1.20;;
78508;SDS011;67802;50.846;7.958;2023-09-18T09:44:16;3.33;;;1.42;;
78508;SDS011;67802;50.846;7.958;2023-09-18T09:46:48;3.03;;;1.27;;
78508;SDS011;67802;50.846;7.958;2023-09-18T09:49:14;3.08;;;1.30;;
78508;SDS011;67802;50.846;7.958;2023-09-18T09:51:40;4.30;;;1.30;;
78508;SDS011;67802;50.846;7.958;2023-09-18T09:54:06;3.38;;;1.33;;
78508;SDS011;67802;50.846;7.958;2023-09-18T09:56:43;3.15;;;1.30;;
78508;SDS011;67802;50.846;7.958;2023-09-18T09:59:13;3.40;;;1.20;;
78508;SDS011;67802;50.846;7.958;2023-09-18T10:01:40;3.97;;;1.30;;
78508;SDS011;67802;50.846;7.958;2023-09-18T10:04:10;3.90;;;1.38;;
78508;SDS011;67802;50.846;7.958;2023-09-18T10:06:38;2.90;;;1.23;;
78508;SDS011;67802;50.846;7.958;2023-09-18T10:09:08;3.08;;;1.10;;
78508;SDS011;67802;50.846;7.958;2023-09-18T10:11:37;4.22;;;1.60;;
78508;SDS011;67802;50.846;7.958;2023-09-18T10:14:13;2.85;;;1.10;;
78508;SDS011;67802;50.846;7.958;2023-09-18T10:16:41;2.97;;;1.42;;
78508;SDS011;67802;50.846;7.958;2023-09-18T10:26:55;6.72;;;1.48;;
78508;SDS011;67802;50.846;7.958;2023-09-18T10:29:23;3.67;;;1.20;;
78508;SDS011;67802;50.846;7.958;2023-09-18T10:31:50;4.75;;;1.17;;
78508;SDS011;67802;50.846;7.958;2023-09-18T10:34:17;2.67;;;1.15;;
78508;SDS011;67802;50.846;7.958;2023-09-18T10:36:43;2.88;;;1.17;;
78508;SDS011;67802;50.846;7.958;2023-09-18T10:39:11;4.78;;;1.40;;
78508;SDS011;67802;50.846;7.958;2023-09-18T10:41:38;5.60;;;1.27;;
78508;SDS011;67802;50.846;7.958;2023-09-18T10:44:05;3.08;;;1.10;;
78508;SDS011;67802;50.846;7.958;2023-09-18T10:46:31;2.65;;;1.10;;
78508;SDS011;67802;50.846;7.958;2023-09-18T10:48:57;3.55;;;1.40;;
78508;SDS011;67802;50.846;7.958;2023-09-18T10:51:24;4.50;;;1.13;;
78508;SDS011;67802;50.846;7.958;2023-09-18T10:53:50;2.55;;;1.00;;
78508;SDS011;67802;50.846;7.958;2023-09-18T10:56:19;2.50;;;1.10;;
78508;SDS011;67802;50.846;7.958;2023-09-18T10:58:44;3.83;;;1.33;;
78508;SDS011;67802;50.846;7.958;2023-09-18T11:01:13;2.83;;;1.13;;
78508;SDS011;67802;50.846;7.958;2023-09-18T11:03:39;2.10;;;1.00;;
78508;SDS011;67802;50.846;7.958;2023-09-18T11:06:06;3.65;;;1.20;;
78508;SDS011;67802;50.846;7.958;2023-09-18T11:08:44;4.90;;;1.30;;
78508;SDS011;67802;50.846;7.958;2023-09-18T11:11:11;2.22;;;1.00;;
78508;SDS011;67802;50.846;7.958;2023-09-18T11:13:46;2.53;;;1.05;;
78508;SDS011;67802;50.846;7.958;2023-09-18T11:16:19;4.32;;;1.02;;
78508;SDS011;67802;50.846;7.958;2023-09-18T11:21:25;2.73;;;1.10;;
78508;SDS011;67802;50.846;7.958;2023-09-18T11:24:01;3.90;;;1.20;;
78508;SDS011;67802;50.846;7.958;2023-09-18T11:26:36;4.32;;;1.25;;
78508;SDS011;67802;50.846;7.958;2023-09-18T11:29:13;2.95;;;0.93;;
78508;SDS011;67802;50.846;7.958;2023-09-18T11:36:48;2.58;;;1.20;;
78508;SDS011;67802;50.846;7.958;2023-09-18T11:39:14;2.55;;;1.10;;
78508;SDS011;67802;50.846;7.958;2023-09-18T11:42:08;8.25;;;1.40;;
78508;SDS011;67802;50.846;7.958;2023-09-18T11:44:35;2.97;;;1.00;;
78508;SDS011;67802;50.846;7.958;2023-09-18T11:47:06;5.35;;;1.20;;
78508;SDS011;67802;50.846;7.958;2023-09-18T11:49:32;6.55;;;1.30;;
78508;SDS011;67802;50.846;7.958;2023-09-18T11:51:58;3.40;;;1.02;;
78508;SDS011;67802;50.846;7.958;2023-09-18T11:54:24;4.88;;;1.10;;
78508;SDS011;67802;50.846;7.958;2023-09-18T11:56:50;4.22;;;1.10;;
78508;SDS011;67802;50.846;7.958;2023-09-18T11:59:15;3.70;;;1.00;;
78508;SDS011;67802;50.846;7.958;2023-09-18T12:01:42;2.72;;;1.10;;
78508;SDS011;67802;50.846;7.958;2023-09-18T12:04:11;3.88;;;1.10;;
78508;SDS011;67802;50.846;7.958;2023-09-18T12:06:40;3.72;;;1.27;;
78508;SDS011;67802;50.846;7.958;2023-09-18T12:09:06;4.43;;;1.05;;
78508;SDS011;67802;50.846;7.958;2023-09-18T12:11:32;2.38;;;0.90;;
78508;SDS011;67802;50.846;7.958;2023-09-18T12:14:04;3.53;;;1.10;;
78508;SDS011;67802;50.846;7.958;2023-09-18T12:16:30;3.72;;;1.20;;
78508;SDS011;67802;50.846;7.958;2023-09-18T12:18:56;4.05;;;1.00;;
78508;SDS011;67802;50.846;7.958;2023-09-18T12:21:22;2.80;;;1.00;;
78508;SDS011;67802;50.846;7.958;2023-09-18T12:23:47;3.15;;;0.98;;
78508;SDS011;67802;50.846;7.958;2023-09-18T12:26:14;3.08;;;1.08;;
78508;SDS011;67802;50.846;7.958;2023-09-18T12:28:41;3.03;;;1.10;;
78508;SDS011;67802;50.846;7.958;2023-09-18T12:31:10;2.72;;;0.90;;
78508;SDS011;67802;50.846;7.958;2023-09-18T12:33:37;5.03;;;1.15;;
78508;SDS011;67802;50.846;7.958;2023-09-18T12:36:03;2.33;;;1.02;;
78508;SDS011;67802;50.846;7.958;2023-09-18T12:38:30;3.50;;;1.10;;
78508;SDS011;67802;50.846;7.958;2023-09-18T12:40:56;2.22;;;0.98;;
78508;SDS011;67802;50.846;7.958;2023-09-18T12:43:29;2.67;;;0.82;;
78508;SDS011;67802;50.846;7.958;2023-09-18T12:45:56;2.55;;;0.90;;
78508;SDS011;67802;50.846;7.958;2023-09-18T12:48:22;2.58;;;1.00;;
78508;SDS011;67802;50.846;7.958;2023-09-18T12:50:51;3.53;;;1.00;;
78508;SDS011;67802;50.846;7.958;2023-09-18T12:53:21;2.75;;;1.42;;
78508;SDS011;67802;50.846;7.958;2023-09-18T12:55:47;2.95;;;1.10;;
78508;SDS011;67802;50.846;7.958;2023-09-18T12:58:18;2.90;;;1.10;;
78508;SDS011;67802;50.846;7.958;2023-09-18T13:00:49;1.63;;;0.80;;
78508;SDS011;67802;50.846;7.958;2023-09-18T13:03:15;2.63;;;1.10;;
78508;SDS011;67802;50.846;7.958;2023-09-18T13:05:41;1.70;;;0.80;;
78508;SDS011;67802;50.846;7.958;2023-09-18T13:08:06;2.53;;;1.08;;
78508;SDS011;67802;50.846;7.958;2023-09-18T13:10:45;4.70;;;1.10;;
78508;SDS011;67802;50.846;7.958;2023-09-18T13:13:17;2.53;;;1.20;;
78508;SDS011;67802;50.846;7.958;2023-09-18T13:15:46;2.55;;;1.00;;
78508;SDS011;67802;50.846;7.958;2023-09-18T13:18:13;2.45;;;0.90;;
78508;SDS011;67802;50.846;7.958;2023-09-18T13:20:40;3.25;;;1.00;;
78508;SDS011;67802;50.846;7.958;2023-09-18T13:23:06;2.40;;;1.00;;
78508;SDS011;67802;50.846;7.958;2023-09-18T13:25:35;3.05;;;0.90;;
78508;SDS011;67802;50.846;7.958;2023-09-18T13:28:07;3.13;;;1.00;;
78508;SDS011;67802;50.846;7.958;2023-09-18T13:30:35;3.47;;;0.90;;
78508;SDS011;67802;50.846;7.958;2023-09-18T13:35:31;2.50;;;0.90;;
78508;SDS011;67802;50.846;7.958;2023-09-18T13:37:56;1.85;;;0.90;;
78508;SDS011;67802;50.846;7.958;2023-09-18T13:40:22;2.87;;;0.90;;
78508;SDS011;67802;50.846;7.958;2023-09-18T13:42:47;2.70;;;1.00;;
78508;SDS011;67802;50.846;7.958;2023-09-18T13:45:14;3.05;;;1.00;;
78508;SDS011;67802;50.846;7.958;2023-09-18T13:47:41;2.90;;;0.90;;
78508;SDS011;67802;50.846;7.958;2023-09-18T13:50:06;2.90;;;1.00;;
78508;SDS011;67802;50.846;7.958;2023-09-18T13:52:32;3.50;;;1.23;;
78508;SDS011;67802;50.846;7.958;2023-09-18T13:55:00;1.60;;;0.90;;
78508;SDS011;67802;50.846;7.958;2023-09-18T13:57:26;4.43;;;1.10;;
78508;SDS011;67802;50.846;7.958;2023-09-18T13:59:52;1.90;;;0.80;;
78508;SDS011;67802;50.846;7.958;2023-09-18T14:02:19;2.55;;;1.10;;
78508;SDS011;67802;50.846;7.958;2023-09-18T14:04:44;2.88;;;0.90;;
78508;SDS011;67802;50.846;7.958;2023-09-18T14:07:10;2.60;;;0.95;;
78508;SDS011;67802;50.846;7.958;2023-09-18T14:09:36;1.90;;;0.95;;
78508;SDS011;67802;50.846;7.958;2023-09-18T14:12:02;3.47;;;1.00;;
78508;SDS011;67802;50.846;7.958;2023-09-18T14:14:28;3.05;;;1.10;;
78508;SDS011;67802;50.846;7.958;2023-09-18T14:16:54;1.80;;;0.95;;
78508;SDS011;67802;50.846;7.958;2023-09-18T14:19:20;2.20;;;0.93;;
78508;SDS011;67802;50.846;7.958;2023-09-18T14:21:45;1.13;;;0.80;;
78508;SDS011;67802;50.846;7.958;2023-09-18T14:24:11;3.97;;;1.00;;
78508;SDS011;67802;50.846;7.958;2023-09-18T14:26:36;4.95;;;1.15;;
78508;SDS011;67802;50.846;7.958;2023-09-18T14:29:08;2.58;;;0.90;;
78508;SDS011;67802;50.846;7.958;2023-09-18T14:31:37;1.98;;;0.90;;
78508;SDS011;67802;50.846;7.958;2023-09-18T14:34:03;2.05;;;0.90;;
78508;SDS011;67802;50.846;7.958;2023-09-18T14:36:30;2.35;;;1.00;;
78508;SDS011;67802;50.846;7.958;2023-09-18T14:38:57;4.38;;;1.10;;
78508;SDS011;67802;50.846;7.958;2023-09-18T14:41:23;4.80;;;1.27;;
78508;SDS011;67802;50.846;7.958;2023-09-18T14:43:49;3.88;;;1.00;;
78508;SDS011;67802;50.846;7.958;2023-09-18T14:46:15;3.60;;;0.88;;
78508;SDS011;67802;50.846;7.958;2023-09-18T14:48:40;2.13;;;0.93;;
78508;SDS011;67802;50.846;7.958;2023-09-18T14:51:06;2.45;;;0.93;;
78508;SDS011;67802;50.846;7.958;2023-09-18T14:53:32;3.42;;;0.95;;
78508;SDS011;67802;50.846;7.958;2023-09-18T14:55:57;2.85;;;1.20;;
78508;SDS011;67802;50.846;7.958;2023-09-18T14:58:23;4.22;;;1.05;;
78508;SDS011;67802;50.846;7.958;2023-09-18T15:00:49;2.83;;;0.93;;
78508;SDS011;67802;50.846;7.958;2023-09-18T15:03:15;2.60;;;0.90;;
78508;SDS011;67802;50.846;7.958;2023-09-18T15:05:40;4.63;;;1.17;;